createdAt,value
2023-03-13T00:00:37.292Z,10.8
2023-03-13T00:01:37.336Z,10.8
2023-03-13T00:03:37.308Z,10.8
2023-03-13T00:04:37.353Z,10.8
2023-03-13T00:05:37.342Z,10.8
2023-03-13T00:06:38.748Z,10.8
2023-03-13T00:07:37.285Z,10.8
2023-03-13T00:08:37.276Z,10.8
2023-03-13T00:09:37.283Z,10.8
2023-03-13T00:10:37.307Z,10.8
2023-03-13T00:11:37.284Z,10.8
2023-03-13T00:12:37.287Z,10.8
2023-03-13T00:14:37.294Z,10.8
2023-03-13T00:15:37.288Z,10.9
2023-03-13T00:16:37.467Z,10.9
2023-03-13T00:17:37.294Z,10.9
2023-03-13T00:18:37.333Z,10.8
2023-03-13T00:19:37.293Z,10.8
2023-03-13T00:20:37.275Z,10.8
2023-03-13T00:21:37.289Z,10.8
2023-03-13T00:22:37.299Z,10.9
2023-03-13T00:23:37.354Z,10.9
2023-03-13T00:24:37.302Z,10.9
2023-03-13T00:25:37.283Z,10.9
2023-03-13T00:26:37.282Z,10.8
2023-03-13T00:27:37.331Z,10.9
2023-03-13T00:28:37.314Z,10.9
2023-03-13T00:30:37.318Z,10.8
2023-03-13T00:31:37.338Z,10.8
2023-03-13T00:32:37.370Z,10.8
2023-03-13T00:33:37.308Z,10.8
2023-03-13T00:35:37.397Z,10.8
2023-03-13T00:36:37.303Z,10.8
2023-03-13T00:37:37.286Z,10.8
2023-03-13T00:38:37.294Z,10.8
2023-03-13T00:39:37.392Z,10.7
2023-03-13T00:40:37.303Z,10.7
2023-03-13T00:41:37.324Z,10.7
2023-03-13T00:43:37.282Z,10.7
2023-03-13T00:44:37.281Z,10.7
2023-03-13T00:45:37.279Z,10.7
2023-03-13T00:46:37.437Z,10.7
2023-03-13T00:47:37.292Z,10.7
2023-03-13T00:48:37.301Z,10.7
2023-03-13T00:49:37.279Z,10.7
2023-03-13T00:50:37.281Z,10.7
2023-03-13T00:51:37.285Z,10.7
2023-03-13T00:52:37.285Z,10.7
2023-03-13T00:53:37.301Z,10.7
2023-03-13T00:55:37.375Z,10.7
2023-03-13T00:56:37.285Z,10.7
2023-03-13T00:57:37.279Z,10.7
2023-03-13T00:58:37.302Z,10.6
2023-03-13T00:59:37.268Z,10.6
2023-03-13T01:00:37.283Z,10.5
2023-03-13T01:01:37.270Z,10.4
2023-03-13T01:02:37.404Z,10.4
2023-03-13T01:04:37.282Z,10.4
2023-03-13T01:05:37.287Z,10.4
2023-03-13T01:06:37.282Z,10.3
2023-03-13T01:07:37.280Z,10.3
2023-03-13T01:08:37.276Z,10.4
2023-03-13T01:09:37.288Z,10.4
2023-03-13T01:10:37.283Z,10.4
2023-03-13T01:11:37.296Z,10.3
2023-03-13T01:12:37.290Z,10.4
2023-03-13T01:13:37.293Z,10.3
2023-03-13T01:15:37.401Z,10.3
2023-03-13T01:16:37.278Z,10.4
2023-03-13T01:17:37.330Z,10.4
2023-03-13T01:18:37.294Z,10.4
2023-03-13T01:19:37.334Z,10.4
2023-03-13T01:20:37.279Z,10.3
2023-03-13T01:21:37.285Z,10.4
2023-03-13T01:23:37.279Z,10.4
2023-03-13T01:24:37.348Z,10.3
2023-03-13T01:25:37.308Z,10.3
2023-03-13T01:26:37.287Z,10.3
2023-03-13T01:28:37.296Z,10.3
2023-03-13T01:31:37.406Z,10.2
2023-03-13T01:32:37.335Z,10.2
2023-03-13T01:33:37.308Z,10.3
2023-03-13T01:34:37.282Z,10.2
2023-03-13T01:36:37.284Z,10.2
2023-03-13T01:37:37.277Z,10.2
2023-03-13T01:38:37.282Z,10
2023-03-13T01:39:37.286Z,10
2023-03-13T01:40:37.281Z,10
2023-03-13T01:41:37.277Z,10
2023-03-13T01:42:37.278Z,10
2023-03-13T01:43:37.295Z,10
2023-03-13T01:44:37.280Z,9.9
2023-03-13T01:45:37.285Z,9.8
2023-03-13T01:46:37.457Z,9.8
2023-03-13T01:47:37.288Z,9.8
2023-03-13T01:48:37.281Z,9.8
2023-03-13T01:49:37.281Z,9.8
2023-03-13T01:50:37.299Z,9.7
2023-03-13T01:52:37.292Z,9.8
2023-03-13T01:53:37.274Z,9.8
2023-03-13T01:54:37.285Z,9.8
2023-03-13T01:55:37.289Z,9.8
2023-03-13T01:57:37.279Z,9.7
2023-03-13T01:58:37.323Z,9.7
2023-03-13T01:59:37.280Z,9.7
2023-03-13T02:00:37.272Z,9.7
2023-03-13T02:01:37.386Z,9.7
2023-03-13T02:02:37.317Z,9.8
2023-03-13T02:03:37.276Z,9.8
2023-03-13T02:04:37.349Z,9.7
2023-03-13T02:05:37.284Z,9.6
2023-03-13T02:08:37.345Z,9.7
2023-03-13T02:11:37.280Z,9.7
2023-03-13T02:12:37.284Z,9.6
2023-03-13T02:13:37.283Z,9.7
2023-03-13T02:15:37.324Z,9.7
2023-03-13T02:16:37.280Z,9.7
2023-03-13T02:17:37.309Z,9.7
2023-03-13T02:18:37.275Z,9.7
2023-03-13T02:20:37.282Z,9.7
2023-03-13T02:21:37.277Z,9.6
2023-03-13T02:22:37.282Z,9.7
2023-03-13T02:23:37.277Z,9.7
2023-03-13T02:24:37.278Z,9.7
2023-03-13T02:25:37.359Z,9.7
2023-03-13T02:26:37.281Z,9.7
2023-03-13T02:28:37.276Z,9.8
2023-03-13T02:29:37.275Z,9.7
2023-03-13T02:30:37.292Z,9.7
2023-03-13T02:31:37.383Z,9.8
2023-03-13T02:32:37.332Z,9.8
2023-03-13T02:33:37.268Z,9.8
2023-03-13T02:34:37.276Z,9.8
2023-03-13T02:36:37.279Z,9.7
2023-03-13T02:37:37.299Z,9.8
2023-03-13T02:38:37.284Z,9.8
2023-03-13T02:39:37.270Z,9.8
2023-03-13T02:41:37.277Z,9.8
2023-03-13T02:42:37.310Z,9.8
2023-03-13T02:43:37.272Z,9.8
2023-03-13T02:44:37.270Z,9.8
2023-03-13T02:45:37.268Z,9.8
2023-03-13T02:46:37.330Z,9.8
2023-03-13T02:47:37.320Z,9.8
2023-03-13T02:49:37.288Z,9.8
2023-03-13T02:50:37.280Z,9.8
2023-03-13T02:51:37.284Z,9.8
2023-03-13T02:52:37.278Z,9.8
2023-03-13T02:53:37.282Z,9.9
2023-03-13T02:55:37.277Z,9.9
2023-03-13T02:56:37.277Z,9.9
2023-03-13T02:57:37.281Z,9.9
2023-03-13T02:58:44.092Z,9.9
2023-03-13T03:00:37.337Z,10
2023-03-13T03:01:37.270Z,10
2023-03-13T03:02:37.272Z,10
2023-03-13T03:04:37.272Z,10
2023-03-13T03:05:37.279Z,10.1
2023-03-13T03:06:37.300Z,10
2023-03-13T03:08:37.271Z,10.1
2023-03-13T03:09:37.276Z,10.1
2023-03-13T03:10:37.281Z,10.1
2023-03-13T03:11:37.289Z,10.1
2023-03-13T03:12:37.281Z,10.1
2023-03-13T03:13:37.291Z,10.1
2023-03-13T03:14:37.361Z,10.2
2023-03-13T03:16:37.333Z,10.2
2023-03-13T03:17:37.277Z,10.3
2023-03-13T03:18:37.265Z,10.2
2023-03-13T03:19:37.307Z,10.3
2023-03-13T03:21:37.273Z,10.3
2023-03-13T03:22:37.278Z,10.4
2023-03-13T03:23:37.276Z,10.4
2023-03-13T03:24:37.283Z,10.4
2023-03-13T03:25:37.268Z,10.4
2023-03-13T03:26:37.267Z,10.4
2023-03-13T03:27:37.285Z,10.4
2023-03-13T03:29:37.273Z,10.4
2023-03-13T03:30:37.271Z,10.4
2023-03-13T03:31:37.377Z,10.4
2023-03-13T03:32:37.295Z,10.4
2023-03-13T03:33:37.271Z,10.4
2023-03-13T03:34:37.271Z,10.5
2023-03-13T03:35:37.296Z,10.4
2023-03-13T03:37:37.271Z,10.5
2023-03-13T03:38:37.269Z,10.5
2023-03-13T03:39:37.268Z,10.5
2023-03-13T03:40:37.267Z,10.5
2023-03-13T03:42:37.252Z,10.5
2023-03-13T03:43:37.257Z,10.5
2023-03-13T03:44:37.257Z,10.6
2023-03-13T03:45:37.291Z,10.6
2023-03-13T03:46:37.260Z,10.6
2023-03-13T03:47:37.271Z,10.6
2023-03-13T03:48:37.328Z,10.6
2023-03-13T03:50:37.337Z,10.6
2023-03-13T03:51:37.262Z,10.6
2023-03-13T03:53:37.267Z,10.7
2023-03-13T03:54:37.296Z,10.7
2023-03-13T03:55:37.261Z,10.7
2023-03-13T03:56:37.261Z,10.7
2023-03-13T03:57:37.256Z,10.7
2023-03-13T03:58:37.289Z,10.7
2023-03-13T03:59:37.262Z,10.8
2023-03-13T04:01:37.274Z,10.8
2023-03-13T04:02:37.370Z,10.8
2023-03-13T04:03:37.376Z,10.8
2023-03-13T04:04:37.576Z,10.8
2023-03-13T04:05:37.336Z,10.9
2023-03-13T04:06:37.265Z,10.9
2023-03-13T04:07:37.264Z,10.9
2023-03-13T04:09:37.262Z,10.8
2023-03-13T04:10:37.261Z,10.8
2023-03-13T04:11:37.267Z,10.8
2023-03-13T04:12:37.277Z,10.8
2023-03-13T04:14:37.265Z,10.8
2023-03-13T04:15:37.261Z,10.8
2023-03-13T04:16:37.326Z,10.8
2023-03-13T04:17:37.263Z,10.9
2023-03-13T04:18:37.282Z,10.9
2023-03-13T04:19:37.276Z,10.9
2023-03-13T04:22:37.302Z,10.9
2023-03-13T04:23:37.256Z,10.9
2023-03-13T04:24:37.266Z,10.9
2023-03-13T04:25:37.264Z,10.9
2023-03-13T04:26:37.262Z,10.9
2023-03-13T04:27:37.262Z,10.9
2023-03-13T04:28:37.648Z,10.9
2023-03-13T04:30:37.291Z,11
2023-03-13T04:31:37.280Z,11
2023-03-13T04:32:37.312Z,11
2023-03-13T04:33:37.261Z,11
2023-03-13T04:34:37.256Z,11
2023-03-13T04:35:37.392Z,11
2023-03-13T04:36:37.263Z,11
2023-03-13T04:37:37.264Z,11.1
2023-03-13T04:38:37.283Z,11.1
2023-03-13T04:39:37.263Z,11.1
2023-03-13T04:40:37.261Z,11.1
2023-03-13T04:41:37.262Z,11.1
2023-03-13T04:42:37.262Z,11.2
2023-03-13T04:43:37.264Z,11.2
2023-03-13T04:45:37.261Z,11.3
2023-03-13T04:46:37.329Z,11.3
2023-03-13T04:47:37.260Z,11.3
2023-03-13T04:48:37.265Z,11.3
2023-03-13T04:49:37.320Z,11.3
2023-03-13T04:50:37.261Z,11.3
2023-03-13T04:51:37.265Z,11.4
2023-03-13T04:52:37.302Z,11.4
2023-03-13T04:54:37.258Z,11.4
2023-03-13T04:56:43.774Z,11.4
2023-03-13T04:57:37.265Z,11.4
2023-03-13T04:58:37.267Z,11.4
2023-03-13T04:59:37.267Z,11.5
2023-03-13T05:00:37.251Z,11.5
2023-03-13T05:01:37.401Z,11.5
2023-03-13T05:02:37.257Z,11.6
2023-03-13T05:04:37.292Z,11.6
2023-03-13T05:05:37.259Z,11.6
2023-03-13T05:06:37.261Z,11.7
2023-03-13T05:07:37.278Z,11.7
2023-03-13T05:08:37.252Z,11.7
2023-03-13T05:09:37.262Z,11.8
2023-03-13T05:10:37.281Z,11.8
2023-03-13T05:12:37.261Z,11.9
2023-03-13T05:13:37.262Z,11.9
2023-03-13T05:14:37.269Z,11.9
2023-03-13T05:15:37.325Z,12
2023-03-13T05:17:37.262Z,12
2023-03-13T05:18:37.258Z,12
2023-03-13T05:19:37.281Z,12
2023-03-13T05:21:37.249Z,12
2023-03-13T05:22:37.258Z,12
2023-03-13T05:23:37.290Z,12
2023-03-13T05:26:37.267Z,12.1
2023-03-13T05:27:37.261Z,12.1
2023-03-13T05:28:37.253Z,12.1
2023-03-13T05:29:37.268Z,12.2
2023-03-13T05:30:37.268Z,12.2
2023-03-13T05:31:37.262Z,12.2
2023-03-13T05:33:37.274Z,12.2
2023-03-13T05:34:37.266Z,12.3
2023-03-13T05:35:37.304Z,12.3
2023-03-13T05:36:37.256Z,12.3
2023-03-13T05:38:37.262Z,12.3
2023-03-13T05:39:37.252Z,12.3
2023-03-13T05:40:37.265Z,12.3
2023-03-13T05:41:37.263Z,12.3
2023-03-13T05:42:37.298Z,12.4
2023-03-13T05:43:37.252Z,12.4
2023-03-13T05:44:37.257Z,12.4
2023-03-13T05:46:37.305Z,12.5
2023-03-13T05:47:37.254Z,12.5
2023-03-13T05:48:37.256Z,12.6
2023-03-13T05:49:37.369Z,12.7
2023-03-13T05:50:37.256Z,12.7
2023-03-13T05:51:37.253Z,12.8
2023-03-13T05:52:37.256Z,12.8
2023-03-13T05:54:37.284Z,12.8
2023-03-13T05:55:37.246Z,12.8
2023-03-13T05:56:37.256Z,12.9
2023-03-13T05:57:37.247Z,12.9
2023-03-13T05:59:37.263Z,13
2023-03-13T06:00:37.245Z,13.1
2023-03-13T06:01:37.246Z,13.1
2023-03-13T06:02:37.256Z,13.1
2023-03-13T06:03:37.427Z,13.1
2023-03-13T06:04:37.436Z,13.2
2023-03-13T06:05:37.248Z,13.3
2023-03-13T06:07:37.251Z,13.4
2023-03-13T06:08:37.253Z,13.4
2023-03-13T06:09:37.290Z,13.4
2023-03-13T06:10:37.248Z,13.4
2023-03-13T06:11:37.246Z,13.4
2023-03-13T06:12:37.252Z,13.4
2023-03-13T06:13:37.272Z,13.4
2023-03-13T06:15:37.245Z,13.4
2023-03-13T06:16:37.240Z,13.5
2023-03-13T06:17:37.245Z,13.5
2023-03-13T06:18:37.242Z,13.4
2023-03-13T06:20:37.243Z,13.3
2023-03-13T06:21:37.317Z,13.3
2023-03-13T06:22:37.237Z,13.2
2023-03-13T06:23:37.252Z,13.2
2023-03-13T06:24:37.249Z,13.2
2023-03-13T06:25:37.269Z,13.3
2023-03-13T06:26:37.267Z,13.3
2023-03-13T06:27:37.240Z,13.4
2023-03-13T06:28:37.345Z,13.3
2023-03-13T06:29:37.258Z,13.4
2023-03-13T06:31:37.394Z,13.4
2023-03-13T06:32:37.485Z,13.4
2023-03-13T06:33:37.270Z,13.3
2023-03-13T06:34:37.240Z,13.4
2023-03-13T06:35:49.453Z,13.5
2023-03-13T06:36:37.304Z,13.6
2023-03-13T06:37:37.236Z,13.6
2023-03-13T06:38:37.245Z,13.6
2023-03-13T06:39:37.296Z,13.5
2023-03-13T06:40:37.244Z,13.6
2023-03-13T06:41:37.237Z,13.6
2023-03-13T06:42:37.242Z,13.6
2023-03-13T06:43:37.284Z,13.7
2023-03-13T06:44:37.250Z,13.7
2023-03-13T06:45:37.573Z,13.7
2023-03-13T06:46:37.306Z,13.8
2023-03-13T06:47:37.246Z,13.8
2023-03-13T06:48:37.242Z,13.7
2023-03-13T06:49:37.244Z,13.7
2023-03-13T06:50:37.250Z,13.6
2023-03-13T06:52:43.295Z,13.7
2023-03-13T06:53:37.342Z,13.7
2023-03-13T06:54:37.251Z,13.7
2023-03-13T06:55:37.241Z,13.7
2023-03-13T06:57:37.244Z,13.7
2023-03-13T06:58:37.236Z,13.7
2023-03-13T06:59:37.244Z,13.7
2023-03-13T07:00:37.306Z,13.7
2023-03-13T07:01:37.236Z,13.7
2023-03-13T07:02:37.246Z,13.7
2023-03-13T07:03:37.309Z,13.7
2023-03-13T07:04:37.258Z,13.6
2023-03-13T07:05:37.252Z,13.6
2023-03-13T07:07:37.277Z,13.8
2023-03-13T07:08:37.271Z,13.8
2023-03-13T07:09:37.247Z,13.8
2023-03-13T07:10:37.234Z,13.9
2023-03-13T07:11:37.244Z,13.8
2023-03-13T07:12:37.302Z,13.9
2023-03-13T07:13:37.245Z,13.9
2023-03-13T07:15:37.243Z,13.9
2023-03-13T07:16:37.267Z,13.8
2023-03-13T07:17:37.420Z,13.8
2023-03-13T07:18:37.254Z,13.8
2023-03-13T07:19:37.244Z,13.8
2023-03-13T07:20:37.286Z,13.8
2023-03-13T07:21:37.247Z,13.8
2023-03-13T07:22:37.253Z,13.8
2023-03-13T07:23:37.244Z,13.8
2023-03-13T07:24:37.303Z,13.8
2023-03-13T07:25:37.245Z,13.8
2023-03-13T07:26:37.351Z,13.9
2023-03-13T07:27:37.294Z,13.9
2023-03-13T07:28:37.975Z,13.9
2023-03-13T07:29:37.251Z,14
2023-03-13T07:30:37.253Z,13.9
2023-03-13T07:31:37.295Z,13.9
2023-03-13T07:32:37.405Z,13.9
2023-03-13T07:34:37.245Z,13.9
2023-03-13T07:35:38.500Z,13.9
2023-03-13T07:36:37.359Z,13.9
2023-03-13T07:37:37.256Z,14
2023-03-13T07:39:37.247Z,14
2023-03-13T07:40:37.247Z,14.1
2023-03-13T07:41:38.958Z,14.1
2023-03-13T07:42:37.247Z,14.1
2023-03-13T07:43:37.248Z,14.1
2023-03-13T07:44:37.248Z,14.1
2023-03-13T07:45:37.285Z,14.1
2023-03-13T07:47:37.253Z,14
2023-03-13T07:48:37.252Z,14
2023-03-13T07:49:37.243Z,14
2023-03-13T07:50:37.354Z,14.1
2023-03-13T07:51:43.937Z,14.1
2023-03-13T07:52:37.247Z,14.1
2023-03-13T07:53:37.291Z,14.1
2023-03-13T07:55:37.305Z,14.1
2023-03-13T07:56:37.244Z,14
2023-03-13T07:57:37.249Z,14
2023-03-13T07:58:37.440Z,14.1
2023-03-13T08:00:37.243Z,14.1
2023-03-13T08:01:37.258Z,14.1
2023-03-13T08:02:37.369Z,14.1
2023-03-13T08:03:37.366Z,14.2
2023-03-13T08:04:37.240Z,14.1
2023-03-13T08:05:37.254Z,14
2023-03-13T08:06:37.268Z,14.1
2023-03-13T08:08:37.242Z,14.2
2023-03-13T08:09:37.380Z,14.2
2023-03-13T08:10:37.241Z,14.2
2023-03-13T08:11:37.248Z,14.2
2023-03-13T08:12:37.237Z,14.3
2023-03-13T08:13:37.251Z,14.3
2023-03-13T08:14:37.246Z,14.3
2023-03-13T08:16:37.292Z,14.3
2023-03-13T08:17:37.241Z,14.2
2023-03-13T08:18:37.255Z,14.2
2023-03-13T08:19:37.247Z,14.3
2023-03-13T08:21:37.257Z,14.3
2023-03-13T08:22:37.273Z,14.2
2023-03-13T08:23:37.238Z,14.3
2023-03-13T08:24:37.351Z,14.1
2023-03-13T08:26:37.286Z,14.2
2023-03-13T08:27:37.247Z,14.3
2023-03-13T08:28:37.246Z,14.3
2023-03-13T08:29:37.641Z,14.2
2023-03-13T08:30:37.256Z,14.3
2023-03-13T08:31:37.322Z,14.4
2023-03-13T08:32:37.296Z,14.4
2023-03-13T08:34:37.241Z,14.4
2023-03-13T08:35:37.291Z,14.5
2023-03-13T08:36:37.285Z,14.5
2023-03-13T08:37:37.275Z,14.6
2023-03-13T08:38:37.275Z,14.6
2023-03-13T08:39:37.274Z,14.6
2023-03-13T08:40:37.262Z,14.7
2023-03-13T08:41:37.257Z,14.7
2023-03-13T08:42:37.242Z,14.7
2023-03-13T08:43:37.294Z,14.7
2023-03-13T08:44:37.230Z,14.7
2023-03-13T08:45:37.247Z,14.8
2023-03-13T08:46:37.346Z,14.7
2023-03-13T08:47:37.290Z,14.7
2023-03-13T08:48:37.245Z,14.7
2023-03-13T08:49:37.249Z,14.7
2023-03-13T08:50:37.237Z,14.6
2023-03-13T08:51:37.267Z,14.7
2023-03-13T08:52:37.255Z,14.7
2023-03-13T08:53:37.251Z,14.6
2023-03-13T08:54:37.294Z,14.7
2023-03-13T08:55:37.242Z,14.7
2023-03-13T08:56:37.236Z,14.8
2023-03-13T08:58:37.262Z,14.8
2023-03-13T08:59:37.243Z,14.9
2023-03-13T09:00:37.321Z,15
2023-03-13T09:01:37.239Z,15.2
2023-03-13T09:02:37.304Z,15.2
2023-03-13T09:03:37.316Z,15.2
2023-03-13T09:04:37.239Z,15.2
2023-03-13T09:06:37.239Z,15.2
2023-03-13T09:07:37.309Z,15.2
2023-03-13T09:08:37.244Z,15.2
2023-03-13T09:09:37.256Z,15.2
2023-03-13T09:10:37.242Z,15.3
2023-03-13T09:11:37.241Z,15.4
2023-03-13T09:12:37.259Z,15.4
2023-03-13T09:14:37.244Z,15.6
2023-03-13T09:15:37.281Z,15.5
2023-03-13T09:17:37.242Z,15.5
2023-03-13T09:19:38.198Z,15.6
2023-03-13T09:20:38.158Z,15.5
2023-03-13T09:21:37.253Z,15.4
2023-03-13T09:22:37.244Z,15.4
2023-03-13T09:23:37.269Z,15.3
2023-03-13T09:24:37.236Z,15.4
2023-03-13T09:25:37.241Z,15.4
2023-03-13T09:26:37.302Z,15.6
2023-03-13T09:27:37.247Z,15.7
2023-03-13T09:28:37.270Z,16
2023-03-13T09:29:37.259Z,16.1
2023-03-13T09:30:37.240Z,16.2
2023-03-13T09:31:37.390Z,16.2
2023-03-13T09:32:37.319Z,16
2023-03-13T09:33:37.246Z,15.8
2023-03-13T09:34:37.257Z,15.7
2023-03-13T09:37:37.242Z,16.2
2023-03-13T09:38:37.235Z,16.5
2023-03-13T09:39:37.247Z,16.7
2023-03-13T09:40:37.249Z,17
2023-03-13T09:42:37.267Z,17.3
2023-03-13T09:43:37.267Z,17.1
2023-03-13T09:44:37.243Z,16.8
2023-03-13T09:45:37.289Z,16.7
2023-03-13T09:46:37.347Z,16.6
2023-03-13T09:47:37.248Z,16.3
2023-03-13T09:48:37.240Z,16.4
2023-03-13T09:49:37.248Z,16.5
2023-03-13T09:50:37.240Z,16.5
2023-03-13T09:51:37.246Z,16.4
2023-03-13T09:52:37.243Z,16.4
2023-03-13T09:53:37.242Z,16.4
2023-03-13T09:54:37.252Z,16.3
2023-03-13T09:55:37.241Z,16.3
2023-03-13T09:59:37.244Z,16.5
2023-03-13T10:01:37.277Z,17.2
2023-03-13T10:02:37.285Z,17.4
2023-03-13T10:03:37.281Z,17.3
2023-03-13T10:04:39.848Z,17.3
2023-03-13T10:05:37.252Z,17.4
2023-03-13T10:06:37.252Z,17.5
2023-03-13T10:07:37.245Z,17.5
2023-03-13T10:09:37.265Z,17.3
2023-03-13T10:10:37.248Z,17.4
2023-03-13T10:11:37.237Z,17.4
2023-03-13T10:12:37.247Z,17.2
2023-03-13T10:13:37.243Z,17.1
2023-03-13T10:14:37.275Z,17
2023-03-13T10:15:37.298Z,16.8
2023-03-13T10:17:37.241Z,16.5
2023-03-13T10:18:37.236Z,16.5
2023-03-13T10:19:37.239Z,16.4
2023-03-13T10:22:37.239Z,16.3
2023-03-13T10:23:37.247Z,16.4
2023-03-13T10:24:37.244Z,16.4
2023-03-13T10:25:37.235Z,16.4
2023-03-13T10:26:38.251Z,16.4
2023-03-13T10:27:37.251Z,16.5
2023-03-13T10:28:37.234Z,16.5
2023-03-13T10:30:37.237Z,16.5
2023-03-13T10:31:37.362Z,16.6
2023-03-13T10:32:37.273Z,16.9
2023-03-13T10:33:37.282Z,17.2
2023-03-13T10:34:37.291Z,17.3
2023-03-13T10:35:37.312Z,17.2
2023-03-13T10:36:37.238Z,17.1
2023-03-13T10:38:37.243Z,16.9
2023-03-13T10:39:37.241Z,16.9
2023-03-13T10:40:37.238Z,16.7
2023-03-13T10:41:37.288Z,16.6
2023-03-13T10:43:37.247Z,16.5
2023-03-13T10:44:37.286Z,16.6
2023-03-13T10:45:37.253Z,16.6
2023-03-13T10:46:37.280Z,16.6
2023-03-13T10:47:37.239Z,16.8
2023-03-13T10:48:37.250Z,17
2023-03-13T10:49:37.265Z,17.4
2023-03-13T10:51:37.239Z,17.6
2023-03-13T10:52:37.246Z,17.6
2023-03-13T10:53:37.256Z,17.3
2023-03-13T10:54:37.251Z,17.2
2023-03-13T10:55:37.244Z,17
2023-03-13T10:56:37.234Z,16.9
2023-03-13T10:57:37.234Z,16.9
2023-03-13T10:58:37.248Z,16.8
2023-03-13T10:59:37.244Z,16.9
2023-03-13T11:00:37.247Z,17.1
2023-03-13T11:02:37.448Z,17.4
2023-03-13T11:03:37.381Z,17.3
2023-03-13T11:04:37.371Z,17.2
2023-03-13T11:05:37.314Z,17.2
2023-03-13T11:06:37.232Z,17.2
2023-03-13T11:07:37.241Z,17.2
2023-03-13T11:08:37.337Z,17.3
2023-03-13T11:10:37.298Z,17.1
2023-03-13T11:11:37.238Z,17.1
2023-03-13T11:12:37.272Z,17.1
2023-03-13T11:13:38.191Z,17.1
2023-03-13T11:15:37.244Z,17
2023-03-13T11:16:37.264Z,16.9
2023-03-13T11:17:37.233Z,16.9
2023-03-13T11:18:37.235Z,16.9
2023-03-13T11:19:37.243Z,17
2023-03-13T11:21:37.244Z,16.8
2023-03-13T11:22:37.239Z,16.7
2023-03-13T11:23:37.265Z,16.8
2023-03-13T11:24:37.250Z,16.9
2023-03-13T11:25:37.250Z,17
2023-03-13T11:29:37.301Z,17
2023-03-13T11:31:37.301Z,17.1
2023-03-13T11:32:37.343Z,17.2
2023-03-13T11:33:37.249Z,17.3
2023-03-13T11:34:37.256Z,17.3
2023-03-13T11:36:37.232Z,17.4
2023-03-13T11:37:37.241Z,17.3
2023-03-13T11:38:37.246Z,17.3
2023-03-13T11:39:37.256Z,17.2
2023-03-13T11:40:37.239Z,17.1
2023-03-13T11:41:37.321Z,17.1
2023-03-13T11:42:37.264Z,17.2
2023-03-13T11:44:37.246Z,17.3
2023-03-13T11:45:37.286Z,17.3
2023-03-13T11:46:37.462Z,17.2
2023-03-13T11:47:37.235Z,17.2
2023-03-13T11:48:37.294Z,17.2
2023-03-13T11:49:39.667Z,17.2
2023-03-13T11:50:37.256Z,17.3
2023-03-13T11:52:37.250Z,17.4
2023-03-13T11:53:37.242Z,17.5
2023-03-13T11:54:37.238Z,17.4
2023-03-13T11:55:37.289Z,17.4
2023-03-13T11:56:37.248Z,17.4
2023-03-13T11:57:37.238Z,17.4
2023-03-13T11:58:37.237Z,17.3
2023-03-13T11:59:37.246Z,17.4
2023-03-13T12:00:37.273Z,17.4
2023-03-13T12:01:37.242Z,17.4
2023-03-13T12:02:37.322Z,17.4
2023-03-13T12:03:37.263Z,17.5
2023-03-13T12:04:37.341Z,17.6
2023-03-13T12:05:37.340Z,17.6
2023-03-13T12:06:37.256Z,17.7
2023-03-13T12:07:37.236Z,17.8
2023-03-13T12:09:37.254Z,18
2023-03-13T12:10:37.251Z,18
2023-03-13T12:11:37.250Z,18
2023-03-13T12:12:37.248Z,17.9
2023-03-13T12:13:37.273Z,17.9
2023-03-13T12:15:37.464Z,17.8
2023-03-13T12:16:37.307Z,17.7
2023-03-13T12:17:37.431Z,17.7
2023-03-13T12:18:37.235Z,17.6
2023-03-13T12:19:37.259Z,17.6
2023-03-13T12:20:37.240Z,17.7
2023-03-13T12:21:37.278Z,17.7
2023-03-13T12:22:37.242Z,17.7
2023-03-13T12:23:37.351Z,17.6
2023-03-13T12:24:37.244Z,17.5
2023-03-13T12:25:39.303Z,17.5
2023-03-13T12:26:37.239Z,17.5
2023-03-13T12:28:37.292Z,17.6
2023-03-13T12:29:37.310Z,17.6
2023-03-13T12:30:37.377Z,17.6
2023-03-13T12:31:37.248Z,17.6
2023-03-13T12:32:37.414Z,17.6
2023-03-13T12:33:37.245Z,17.7
2023-03-13T12:34:37.254Z,17.7
2023-03-13T12:35:37.247Z,17.8
2023-03-13T12:36:37.305Z,17.8
2023-03-13T12:37:37.599Z,17.7
2023-03-13T12:38:37.237Z,17.7
2023-03-13T12:39:37.252Z,17.7
2023-03-13T12:40:37.243Z,17.6
2023-03-13T12:41:37.252Z,17.7
2023-03-13T12:42:37.248Z,17.7
2023-03-13T12:43:37.267Z,17.7
2023-03-13T12:44:37.261Z,17.9
2023-03-13T12:45:37.266Z,18
2023-03-13T12:46:37.316Z,18
2023-03-13T12:47:37.244Z,18
2023-03-13T12:49:37.242Z,18.1
2023-03-13T12:50:37.249Z,18
2023-03-13T12:51:37.256Z,18
2023-03-13T12:52:37.247Z,17.9
2023-03-13T12:53:37.298Z,17.8
2023-03-13T12:54:37.248Z,17.9
2023-03-13T12:55:37.293Z,17.9
2023-03-13T12:56:37.242Z,17.9
2023-03-13T12:57:37.337Z,17.8
2023-03-13T12:58:37.251Z,17.7
2023-03-13T12:59:37.254Z,17.8
2023-03-13T13:00:39.008Z,17.8
2023-03-13T13:01:37.338Z,17.8
2023-03-13T13:02:37.246Z,17.7
2023-03-13T13:03:37.255Z,17.7
2023-03-13T13:04:37.362Z,17.6
2023-03-13T13:05:37.249Z,17.7
2023-03-13T13:06:37.247Z,17.8
2023-03-13T13:07:37.295Z,17.8
2023-03-13T13:08:37.277Z,17.7
2023-03-13T13:10:37.283Z,17.5
2023-03-13T13:11:38.017Z,17.4
2023-03-13T13:12:37.256Z,17.5
2023-03-13T13:13:37.250Z,17.5
2023-03-13T13:14:37.248Z,17.5
2023-03-13T13:15:37.288Z,17.5
2023-03-13T13:16:37.269Z,17.5
2023-03-13T13:18:37.260Z,17.6
2023-03-13T13:19:37.299Z,17.7
2023-03-13T13:20:37.251Z,17.6
2023-03-13T13:21:37.430Z,17.6
2023-03-13T13:22:37.391Z,17.7
2023-03-13T13:24:37.243Z,17.8
2023-03-13T13:25:37.246Z,17.9
2023-03-13T13:26:37.322Z,17.9
2023-03-13T13:27:37.274Z,17.9
2023-03-13T13:28:37.239Z,17.9
2023-03-13T13:29:37.249Z,17.9
2023-03-13T13:30:37.354Z,17.9
2023-03-13T13:32:37.293Z,17.8
2023-03-13T13:33:37.242Z,17.9
2023-03-13T13:34:37.237Z,18
2023-03-13T13:35:37.348Z,17.9
2023-03-13T13:37:37.253Z,18
2023-03-13T13:38:37.342Z,18
2023-03-13T13:39:37.295Z,18
2023-03-13T13:40:37.241Z,18
2023-03-13T13:41:37.424Z,18
2023-03-13T13:42:37.236Z,18
2023-03-13T13:43:37.244Z,18
2023-03-13T13:45:37.317Z,17.9
2023-03-13T13:46:37.292Z,17.9
2023-03-13T13:47:37.248Z,18
2023-03-13T13:48:37.249Z,18
2023-03-13T13:49:37.242Z,18
2023-03-13T13:50:37.238Z,17.9
2023-03-13T13:51:37.272Z,17.8
2023-03-13T13:53:39.492Z,17.7
2023-03-13T13:54:37.245Z,17.6
2023-03-13T13:55:37.242Z,17.6
2023-03-13T13:56:37.301Z,17.5
2023-03-13T13:58:37.238Z,17.5
2023-03-13T13:59:37.258Z,17.5
2023-03-13T14:00:37.246Z,17.4
2023-03-13T14:01:37.270Z,17.5
2023-03-13T14:02:37.250Z,17.6
2023-03-13T14:03:37.255Z,17.6
2023-03-13T14:04:37.317Z,17.6
2023-03-13T14:06:37.249Z,17.6
2023-03-13T14:07:37.261Z,17.6
2023-03-13T14:08:37.249Z,17.6
2023-03-13T14:09:37.566Z,17.6
2023-03-13T14:10:37.296Z,17.6
2023-03-13T14:11:37.245Z,17.5
2023-03-13T14:12:37.247Z,17.6
2023-03-13T14:14:37.243Z,17.6
2023-03-13T14:15:37.258Z,17.5
2023-03-13T14:16:37.372Z,17.4
2023-03-13T14:17:37.257Z,17.4
2023-03-13T14:19:37.261Z,17.3
2023-03-13T14:20:37.259Z,17.4
2023-03-13T14:21:37.258Z,17.4
2023-03-13T14:22:37.250Z,17.3
2023-03-13T14:23:37.258Z,17.3
2023-03-13T14:24:37.248Z,17.2
2023-03-13T14:25:37.259Z,17.3
2023-03-13T14:27:37.255Z,17.3
2023-03-13T14:28:37.268Z,17.3
2023-03-13T14:29:37.249Z,17.3
2023-03-13T14:30:37.261Z,17.4
2023-03-13T14:31:37.404Z,17.5
2023-03-13T14:32:37.476Z,17.5
2023-03-13T14:33:37.267Z,17.5
2023-03-13T14:34:37.248Z,17.5
2023-03-13T14:35:37.334Z,17.6
2023-03-13T14:36:37.273Z,17.6
2023-03-13T14:38:37.253Z,17.7
2023-03-13T14:40:37.261Z,17.9
2023-03-13T14:41:37.285Z,17.8
2023-03-13T14:42:37.349Z,17.8
2023-03-13T14:43:37.245Z,17.8
2023-03-13T14:44:37.261Z,17.7
2023-03-13T14:45:37.251Z,17.6
2023-03-13T14:46:37.328Z,17.6
2023-03-13T14:48:37.250Z,17.6
2023-03-13T14:49:37.253Z,17.6
2023-03-13T14:50:37.247Z,17.6
2023-03-13T14:51:37.246Z,17.5
2023-03-13T14:52:37.253Z,17.4
2023-03-13T14:53:37.247Z,17.4
2023-03-13T14:54:37.316Z,17.4
2023-03-13T14:56:37.250Z,17.3
2023-03-13T14:57:37.252Z,17.4
2023-03-13T14:58:37.303Z,17.4
2023-03-13T14:59:37.254Z,17.5
2023-03-13T15:01:37.306Z,17.6
2023-03-13T15:02:37.250Z,17.5
2023-03-13T15:03:37.264Z,17.5
2023-03-13T15:04:37.369Z,17.5
2023-03-13T15:05:37.253Z,17.5
2023-03-13T15:06:37.248Z,17.4
2023-03-13T15:07:37.261Z,17.4
2023-03-13T15:08:37.395Z,17.4
2023-03-13T15:09:37.245Z,17.4
2023-03-13T15:10:37.266Z,17.4
2023-03-13T15:11:37.313Z,17.3
2023-03-13T15:12:37.270Z,17.2
2023-03-13T15:13:37.419Z,17.2
2023-03-13T15:14:37.243Z,17.3
2023-03-13T15:15:37.255Z,17.3
2023-03-13T15:16:37.897Z,17.4
2023-03-13T15:17:37.245Z,17.4
2023-03-13T15:18:37.334Z,17.4
2023-03-13T15:19:37.253Z,17.4
2023-03-13T15:20:37.290Z,17.4
2023-03-13T15:22:37.546Z,17.3
2023-03-13T15:23:37.248Z,17.2
2023-03-13T15:24:37.253Z,17.1
2023-03-13T15:25:37.306Z,17.1
2023-03-13T15:26:37.249Z,17.1
2023-03-13T15:28:37.246Z,17.1
2023-03-13T15:30:37.247Z,17
2023-03-13T15:31:37.377Z,17.1
2023-03-13T15:32:37.368Z,17.1
2023-03-13T15:33:37.250Z,17.2